Data for 05/12/2005

Time Sea-Level Adjusted Pressure Absolute Pressure Temperature Relative Humidity Dew Point   
(mb) (inHg) (mb) (inHg) (C) (F) (%) (C) (F)
00:05 1020 30.12 849 25.07 -1.5 29.3 85 -3.7 25.3
00:10 1020 30.12 849 25.07 -1.6 29.1 86 -3.6 25.5
00:15 1020 30.12 849 25.07 -1.6 29.1 86 -3.7 25.3
00:20 1020 30.12 849 25.07 -1.7 28.9 86 -3.8 25.2
00:25 1020 30.12 849 25.07 -1.7 29 86 -3.8 25.2
00:30 1020 30.12 849 25.07 -1.7 28.9 86 -3.8 25.2
00:35 1020 30.12 849 25.07 -1.8 28.8 86 -3.8 25.2
00:40 1020 30.12 849 25.07 -1.8 28.8 85 -4 24.9
00:45 1019 30.09 849 25.07 -1.7 28.9 85 -4 24.9
00:50 1019 30.09 849 25.07 -1.8 28.8 85 -3.9 25
00:55 1019 30.09 849 25.07 -1.7 28.9 84 -4.1 24.6
01:00 1019 30.09 849 25.07 -1.8 28.8 85 -4 24.8
01:05 1019 30.09 848 25.04 -1.7 28.9 85 -4 24.8
01:10 1019 30.09 848 25.04 -1.8 28.8 84 -4.1 24.6
01:15 1019 30.09 848 25.04 -1.8 28.8 85 -4 24.8
01:20 1019 30.09 848 25.04 -1.9 28.6 87 -3.8 25.1
01:25 1019 30.09 848 25.04 -2 28.4 88 -3.8 25.1
01:30 1019 30.09 848 25.04 -2 28.4 88 -3.8 25.2
01:35 1019 30.09 848 25.04 -2.1 28.2 88 -3.9 25.1
01:40 1019 30.09 848 25.04 -2 28.4 87 -3.9 25
01:45 1019 30.09 848 25.04 -2 28.3 86 -4.1 24.5
01:50 1019 30.09 848 25.04 -1.9 28.6 84 -4.2 24.4
01:55 1019 30.09 848 25.04 -1.9 28.6 84 -4.2 24.5
02:00 1019 30.09 848 25.04 -1.9 28.5 83 -4.4 24.1
02:05 1019 30.09 848 25.04 -1.9 28.6 82 -4.5 23.9
02:10 1019 30.09 848 25.04 -1.9 28.7 83 -4.4 24.1
02:15 1019 30.09 848 25.04 -1.9 28.5 84 -4.3 24.2
02:20 1019 30.09 848 25.04 -2 28.5 84 -4.4 24.1
02:25 1019 30.09 848 25.04 -1.9 28.5 83 -4.4 24.1
02:30 1019 30.09 848 25.04 -2 28.5 82 -4.6 23.8
02:35 1019 30.09 848 25.04 -2 28.4 83 -4.5 24
02:40 1019 30.09 848 25.04 -2 28.4 83 -4.5 23.9
02:45 1019 30.09 848 25.04 -2 28.4 82 -4.6 23.7
02:50 1019 30.09 848 25.04 -1.9 28.5 82 -4.7 23.6
02:55 1019 30.09 848 25.04 -1.9 28.6 82 -4.6 23.7
03:00 1018 30.06 848 25.04 -2 28.4 83 -4.4 24
03:05 1018 30.06 848 25.04 -2 28.4 84 -4.4 24.1
03:10 1018 30.06 848 25.04 -2.1 28.2 84 -4.4 24
03:15 1018 30.06 848 25.04 -2.2 28.1 85 -4.4 24.1
03:20 1018 30.06 848 25.04 -2.3 27.9 87 -4.2 24.5
03:25 1018 30.06 848 25.04 -2.4 27.7 88 -4 24.7
03:30 1018 30.06 848 25.04 -2.5 27.6 89 -4 24.7
03:35 1018 30.06 848 25.04 -2.5 27.6 89 -4.1 24.7
03:40 1018 30.06 848 25.04 -2.4 27.6 88 -4.2 24.5
03:45 1018 30.06 848 25.04 -2.4 27.8 86 -4.4 24
03:50 1018 30.06 848 25.04 -2.3 27.8 86 -4.4 24
03:55 1018 30.06 848 25.04 -2.4 27.7 88 -4.2 24.5
04:00 1018 30.06 848 25.04 -2.5 27.5 88 -4.2 24.4
04:05 1018 30.06 848 25.04 -2.5 27.5 88 -4.3 24.3
04:10 1018 30.06 847 25.01 -2.5 27.5 89 -4.1 24.6
04:15 1018 30.06 847 25.01 -2.6 27.4 88 -4.2 24.4
04:20 1018 30.06 847 25.01 -2.6 27.3 90 -4.1 24.7
04:25 1018 30.06 847 25.01 -2.6 27.3 90 -4 24.8
04:30 1018 30.06 847 25.01 -2.8 27 92 -3.8 25.1
04:35 1018 30.06 847 25.01 -2.9 26.9 92 -4 24.8
04:40 1018 30.06 847 25.01 -2.9 26.8 92 -4 24.8
04:45 1018 30.06 847 25.01 -2.9 26.7 93 -4 24.9
04:50 1018 30.06 847 25.01 -2.9 26.8 92 -4 24.9
04:55 1018 30.06 847 25.01 -2.9 26.8 93 -3.9 25
05:00 1018 30.06 847 25.01 -3 26.7 93 -4 24.9
05:05 1018 30.06 847 25.01 -2.9 26.7 93 -3.9 25
05:10 1018 30.06 847 25.01 -3 26.6 94 -3.8 25.2
05:15 1018 30.06 847 25.01 -3.1 26.5 95 -3.8 25.2
05:20 1018 30.06 847 25.01 -3.2 26.3 96 -3.8 25.2
05:25 1018 30.06 847 25.01 -3.2 26.2 96 -3.8 25.2
05:30 1018 30.06 847 25.01 -3.2 26.2 95 -3.9 25
05:35 1018 30.06 847 25.01 -3.2 26.3 94 -4 24.9
05:40 1018 30.06 847 25.01 -3.1 26.3 93 -4.1 24.6
05:45 1018 30.06 847 25.01 -3.1 26.4 92 -4.2 24.5
05:50 1018 30.06 847 25.01 -3.1 26.5 90 -4.4 24
05:55 1018 30.06 847 25.01 -2.9 26.7 90 -4.3 24.2
06:00 1018 30.06 847 25.01 -2.9 26.8 87 -4.7 23.5
06:05 1018 30.06 847 25.01 -2.8 26.9 87 -4.7 23.5
06:10 1018 30.06 847 25.01 -2.8 27 86 -4.8 23.4
06:15 1018 30.06 847 25.01 -2.7 27.1 86 -4.8 23.3
06:20 1018 30.06 847 25.01 -2.6 27.3 85 -4.8 23.3
06:25 1018 30.06 847 25.01 -2.5 27.4 84 -4.9 23.2
06:30 1018 30.06 847 25.01 -2.5 27.5 83 -4.9 23.1
06:35 1018 30.06 847 25.01 -2.5 27.6 83 -5 23.1
06:40 1018 30.06 847 25.01 -2.4 27.6 84 -4.8 23.4
06:45 1018 30.06 847 25.01 -2.4 27.7 83 -4.9 23.2
06:50 1018 30.06 847 25.01 -2.3 27.8 82 -4.9 23.1
06:55 1018 30.06 847 25.01 -2.3 27.9 83 -4.8 23.4
07:00 1018 30.06 847 25.01 -2.2 28 82 -4.9 23.1
07:05 1018 30.06 847 25.01 -2.2 28.1 82 -4.8 23.4
07:10 1018 30.06 847 25.01 -2.1 28.3 82 -4.8 23.3
07:15 1018 30.06 847 25.01 -1.9 28.5 82 -4.7 23.6
07:20 1018 30.06 847 25.01 -1.9 28.6 81 -4.7 23.5
07:25 1018 30.06 847 25.01 -1.9 28.6 81 -4.7 23.6
07:30 1018 30.06 847 25.01 -1.8 28.8 81 -4.6 23.8
07:35 1018 30.06 847 25.01 -1.6 29.1 81 -4.4 24.1
07:40 1018 30.06 847 25.01 -1.4 29.4 81 -4.3 24.3
07:45 1018 30.06 847 25.01 -1.3 29.7 82 -4 24.8
07:50 1018 30.06 847 25.01 -1.2 29.9 82 -3.8 25.1
07:55 1018 30.06 847 25.01 -0.8 30.6 80 -3.8 25.1
08:00 1018 30.06 847 25.01 -0.7 30.8 80 -3.7 25.4
08:05 1018 30.06 847 25.01 -0.8 30.5 83 -3.4 25.9
08:10 1018 30.06 847 25.01 -0.8 30.6 85 -3 26.5
08:15 1018 30.06 847 25.01 -0.2 31.7 85 -2.5 27.6
08:20 1018 30.06 847 25.01 -0.1 31.9 86 -2.1 28.3
08:25 1018 30.06 847 25.01 -0.2 31.7 86 -2.2 28
08:30 1018 30.06 847 25.01 -0.6 31 88 -2.3 27.9
08:35 1018 30.06 847 25.01 -0.5 31.1 89 -2.2 28.1
08:40 1018 30.06 847 25.01 -0.4 31.3 88 -2.1 28.2
08:45 1018 30.06 847 25.01 -0.4 31.4 88 -2.1 28.3
08:50 1018 30.06 847 25.01 0.1 32.1 87 -1.8 28.7
08:55 1018 30.06 847 25.01 -0.3 31.5 86 -2.3 27.9
09:00 1018 30.06 847 25.01 0 32 87 -1.9 28.5
09:05 1018 30.06 847 25.01 0.4 32.7 84 -2 28.4
09:10 1018 30.06 847 25.01 0.4 32.7 84 -2 28.4
09:15 1018 30.06 847 25.01 0.1 32.3 86 -2 28.4
09:20 1018 30.06 847 25.01 0.1 32.1 86 -2 28.4
09:25 1018 30.06 847 25.01 0.1 32.3 83 -2.3 27.8
09:30 1018 30.06 847 25.01 -0.1 31.8 86 -2.2 28.1
09:35 1018 30.06 847 25.01 -0.3 31.5 87 -2.2 28
09:40 1018 30.06 847 25.01 -0.1 31.8 86 -2.2 28
09:45 1018 30.06 847 25.01 -0.1 31.9 86 -2.2 28.1
09:50 1018 30.06 847 25.01 -0.1 31.8 87 -2 28.4
09:55 1018 30.06 847 25.01 0.2 32.3 86 -1.9 28.7
10:00 1018 30.06 847 25.01 0.2 32.4 87 -1.7 28.9
10:05 1018 30.06 847 25.01 -0.1 31.8 88 -1.9 28.5
10:10 1018 30.06 847 25.01 -0.1 31.8 87 -2 28.4
10:15 1018 30.06 847 25.01 0.2 32.3 87 -1.7 28.9
10:20 1017 30.03 847 25.01 0.8 33.5 83 -1.8 28.8
10:25 1017 30.03 847 25.01 0.5 32.9 88 -1.3 29.7
10:30 1017 30.03 847 25.01 0.9 33.6 85 -1.3 29.7
10:35 1017 30.03 847 25.01 1 33.9 85 -1.2 29.9
10:40 1018 30.06 847 25.01 1.3 34.4 83 -1.2 29.8
10:45 1018 30.06 847 25.01 1.6 34.8 81 -1.4 29.5
10:50 1018 30.06 847 25.01 1.5 34.7 84 -1 30.2
10:55 1018 30.06 847 25.01 1.3 34.4 84 -1.1 30
11:00 1018 30.06 847 25.01 1.3 34.4 85 -0.9 30.3
11:05 1018 30.06 847 25.01 1.4 34.5 85 -0.9 30.5
11:10 1018 30.06 847 25.01 1.4 34.5 83 -1.2 29.8
11:15 1018 30.06 847 25.01 1.7 35 82 -1 30.2
11:20 1018 30.06 847 25.01 1.8 35.2 81 -1.2 29.9
11:25 1018 30.06 847 25.01 1.8 35.2 83 -0.9 30.4
11:30 1018 30.06 847 25.01 2.1 35.8 81 -0.9 30.4
11:35 1018 30.06 847 25.01 2.3 36.1 82 -0.5 31.1
11:40 1018 30.06 847 25.01 2.5 36.4 81 -0.5 31.2
11:45 1018 30.06 847 25.01 2.3 36.1 85 0 32.1
11:50 1018 30.06 847 25.01 2.2 36 85 0 32
11:55 1018 30.06 847 25.01 2.4 36.3 83 -0.2 31.6
12:00 1018 30.06 847 25.01 2.3 36.2 84 -0.1 31.8
12:05 1018 30.06 847 25.01 2.3 36.1 84 -0.2 31.6
12:10 1018 30.06 847 25.01 2.1 35.7 86 -0.1 31.9
12:15 1018 30.06 847 25.01 2.1 35.7 87 0.1 32.2
12:20 1018 30.06 847 25.01 2.3 36.1 86 0.1 32.1
12:25 1018 30.06 847 25.01 2.4 36.3 85 0 32.1
12:30 1018 30.06 847 25.01 2.3 36.2 86 0.3 32.5
12:35 1018 30.06 847 25.01 2.2 36 89 0.5 32.9
12:40 1018 30.06 847 25.01 2.3 36.1 88 0.4 32.8
12:45 1018 30.06 847 25.01 2.3 36.1 87 0.4 32.7
12:50 1018 30.06 847 25.01 2.2 36 86 0.2 32.4
12:55 1018 30.06 847 25.01 2.3 36.2 89 0.7 33.2
13:00 1018 30.06 847 25.01 2.8 37.1 84 0.3 32.6
13:05 1018 30.06 847 25.01 2.9 37.3 87 0.9 33.7
13:10 1018 30.06 847 25.01 2.8 37 88 1.1 33.9
13:15 1018 30.06 847 25.01 3 37.3 86 0.9 33.7
13:20 1018 30.06 847 25.01 3 37.4 88 1.2 34.1
13:25 1018 30.06 847 25.01 3 37.4 84 0.5 32.9
13:30 1018 30.06 847 25.01 2.9 37.1 88 1 33.8
13:35 1018 30.06 847 25.01 2.9 37.2 87 0.9 33.6
13:40 1018 30.06 847 25.01 3.1 37.7 88 1.3 34.3
13:45 1018 30.06 847 25.01 3.3 38 85 1 33.9
13:50 1018 30.06 847 25.01 3.3 37.9 85 1.1 33.9
13:55 1018 30.06 847 25.01 3.6 38.4 84 1 33.9
14:00 1018 30.06 847 25.01 3.7 38.6 82 0.9 33.6
14:05 1018 30.06 847 25.01 3.6 38.5 81 0.7 33.3
14:10 1018 30.06 847 25.01 3.7 38.7 83 1.1 34
14:15 1018 30.06 847 25.01 4 39.2 79 0.7 33.3
14:20 1018 30.06 847 25.01 3.9 39.1 82 1.2 34.2
14:25 1018 30.06 847 25.01 3.8 38.8 80 0.7 33.2
14:30 1018 30.06 847 25.01 3.4 38.1 82 0.6 33.1
14:35 1018 30.06 847 25.01 3.4 38.1 81 0.5 32.9
14:40 1018 30.06 847 25.01 3.6 38.5 80 0.4 32.8
14:45 1018 30.06 847 25.01 4 39.1 81 1 33.8
14:50 1018 30.06 847 25.01 4.1 39.5 82 1.3 34.4
14:55 1018 30.06 847 25.01 4.6 40.3 79 1.3 34.3
15:00 1018 30.06 847 25.01 4.8 40.6 77 1.2 34.1
15:05 1018 30.06 847 25.01 4.8 40.6 78 1.3 34.4
15:10 1018 30.06 847 25.01 4.9 40.8 78 1.3 34.4
15:15 1018 30.06 847 25.01 4.8 40.6 80 1.7 35.1
15:20 1018 30.06 847 25.01 4.7 40.4 81 1.7 35
15:25 1018 30.06 847 25.01 4.6 40.2 82 1.7 35.1
15:30 1018 30.06 847 25.01 4.6 40.3 83 2 35.5
15:35 1018 30.06 847 25.01 4.6 40.3 84 2.1 35.9
15:40 1018 30.06 847 25.01 4.7 40.5 85 2.5 36.5
15:45 1018 30.06 847 25.01 5.1 41.1 82 2.3 36.1
15:50 1018 30.06 847 25.01 5.4 41.6 83 2.7 36.8
15:55 1018 30.06 847 25.01 5.8 42.4 82 3 37.4
16:00 1018 30.06 847 25.01 5.5 41.9 81 2.6 36.6
16:05 1018 30.06 847 25.01 5.8 42.4 77 2 35.7
16:10 1018 30.06 847 25.01 6 42.9 82 3.2 37.7
16:15 1018 30.06 847 25.01 6.3 43.4 79 2.9 37.2
16:20 1018 30.06 847 25.01 6.4 43.5 78 2.8 37.1
16:25 1018 30.06 847 25.01 5.8 42.5 79 2.4 36.4
16:30 1018 30.06 847 25.01 5.5 41.9 77 1.8 35.2
16:35 1018 30.06 847 25.01 5.3 41.5 80 2.2 35.9
16:40 1018 30.06 847 25.01 5.3 41.5 79 1.9 35.4
16:45 1018 30.06 847 25.01 5.4 41.7 79 2 35.6
16:50 1018 30.06 847 25.01 5.7 42.3 79 2.3 36.1
16:55 1018 30.06 847 25.01 5.9 42.7 77 2.3 36.1
17:00 1018 30.06 847 25.01 5.7 42.3 80 2.5 36.5
17:05 1018 30.06 847 25.01 6 42.8 79 2.6 36.7
17:10 1018 30.06 847 25.01 6.2 43.1 78 2.6 36.7
17:15 1018 30.06 847 25.01 6.3 43.3 75 2.2 36
17:20 1018 30.06 847 25.01 5.8 42.4 78 2.3 36.2
17:25 1018 30.06 847 25.01 5.8 42.4 76 2 35.6
17:30 1018 30.06 847 25.01 5.9 42.6 77 2.2 36
17:35 1018 30.06 847 25.01 6.1 43 77 2.4 36.3
17:40 1018 30.06 847 25.01 6 42.8 77 2.4 36.3
17:45 1018 30.06 847 25.01 6 42.7 80 2.7 36.9
17:50 1018 30.06 847 25.01 5.9 42.6 79 2.6 36.7
17:55 1018 30.06 847 25.01 5.9 42.6 79 2.6 36.6
18:00 1018 30.06 847 25.01 5.7 42.3 78 2.2 35.9
18:05 1018 30.06 847 25.01 5.6 42.1 79 2.3 36.1
18:10 1018 30.06 847 25.01 5.8 42.5 79 2.4 36.3
18:15 1018 30.06 847 25.01 5.9 42.6 79 2.6 36.7
18:20 1018 30.06 847 25.01 5.9 42.6 78 2.4 36.3
18:25 1018 30.06 847 25.01 5.8 42.4 77 2.1 35.8
18:30 1018 30.06 847 25.01 5.9 42.6 79 2.5 36.4
18:35 1018 30.06 847 25.01 6 42.9 77 2.3 36.2
18:40 1018 30.06 847 25.01 5.9 42.6 80 2.6 36.7
18:45 1018 30.06 847 25.01 5.8 42.4 81 2.7 36.9
18:50 1018 30.06 847 25.01 5.7 42.3 79 2.3 36.2
18:55 1018 30.06 847 25.01 5.5 41.9 80 2.3 36.1
19:00 1018 30.06 847 25.01 5.5 41.9 81 2.4 36.4
19:05 1018 30.06 847 25.01 5.6 42 82 2.7 36.8
19:10 1018 30.06 847 25.01 5.6 42 82 2.7 36.9
19:15 1018 30.06 847 25.01 5.5 41.9 82 2.7 36.8
19:20 1018 30.06 847 25.01 5.4 41.8 83 2.8 37
19:25 1018 30.06 847 25.01 5.4 41.6 82 2.6 36.6
19:30 1018 30.06 847 25.01 5.4 41.6 84 2.8 37
19:35 1018 30.06 847 25.01 5.4 41.8 82 2.6 36.7
19:40 1018 30.06 847 25.01 5.5 41.8 83 2.9 37.2
19:45 1018 30.06 847 25.01 5.5 41.8 83 2.8 37
19:50 1018 30.06 847 25.01 5.6 42.1 80 2.4 36.3
19:55 1018 30.06 848 25.04 5.6 42.2 80 2.5 36.4
20:00 1018 30.06 848 25.04 5.8 42.4 80 2.6 36.7
20:05 1018 30.06 848 25.04 5.8 42.4 80 2.7 36.8
20:10 1018 30.06 848 25.04 5.8 42.4 80 2.7 36.8
20:15 1018 30.06 848 25.04 5.8 42.4 81 2.7 36.9
20:20 1018 30.06 848 25.04 5.8 42.5 81 2.8 37
20:25 1018 30.06 848 25.04 5.9 42.6 80 2.8 37
20:30 1019 30.09 848 25.04 5.9 42.7 82 3 37.4
20:35 1019 30.09 848 25.04 5.9 42.7 81 2.9 37.3
20:40 1019 30.09 848 25.04 5.6 42.1 86 3.5 38.3
20:45 1019 30.09 848 25.04 5.2 41.4 85 2.9 37.3
20:50 1019 30.09 848 25.04 5.3 41.5 84 2.8 37
20:55 1019 30.09 848 25.04 5 41 87 3 37.3
21:00 1019 30.09 848 25.04 5 41 81 2 35.6
21:05 1019 30.09 848 25.04 5.2 41.4 81 2.2 36
21:10 1019 30.09 848 25.04 5.3 41.5 84 2.9 37.1
21:15 1019 30.09 848 25.04 4.8 40.6 86 2.7 36.8
21:20 1019 30.09 848 25.04 4.7 40.5 86 2.5 36.6
21:25 1019 30.09 848 25.04 4.8 40.6 85 2.5 36.5
21:30 1019 30.09 848 25.04 4.5 40.1 86 2.4 36.4
21:35 1019 30.09 848 25.04 4.4 39.9 87 2.4 36.3
21:40 1019 30.09 848 25.04 4.3 39.7 88 2.5 36.5
21:45 1019 30.09 848 25.04 4.1 39.4 88 2.3 36.1
21:50 1019 30.09 849 25.07 4.1 39.4 88 2.3 36.1
21:55 1019 30.09 848 25.04 4.1 39.5 88 2.3 36.1
22:00 1019 30.09 849 25.07 4 39.3 88 2.3 36.1
22:05 1019 30.09 849 25.07 3.9 39.1 89 2.3 36.1
22:10 1019 30.09 849 25.07 3.7 38.7 90 2.2 36
22:15 1019 30.09 849 25.07 3.4 38.2 91 2 35.7
22:20 1019 30.09 849 25.07 3.4 38.1 90 1.9 35.4
22:25 1019 30.09 849 25.07 3.6 38.5 88 1.8 35.2
22:30 1019 30.09 849 25.07 3.5 38.3 89 1.8 35.2
22:35 1019 30.09 849 25.07 3.4 38.1 90 1.8 35.3
22:40 1019 30.09 849 25.07 3.2 37.8 91 1.8 35.3
22:45 1019 30.09 849 25.07 3.1 37.5 91 1.7 35.1
22:50 1019 30.09 849 25.07 3.2 37.8 89 1.6 34.9
22:55 1019 30.09 849 25.07 3.3 37.9 89 1.6 34.8
23:00 1020 30.12 849 25.07 2.9 37.2 91 1.6 34.9
23:05 1019 30.09 849 25.07 2.6 36.8 91 1.3 34.4
23:10 1019 30.09 849 25.07 2.4 36.2 90 0.9 33.7
23:15 1019 30.09 849 25.07 3 37.3 85 0.7 33.2
23:20 1020 30.12 849 25.07 3.1 37.6 84 0.7 33.2
23:25 1020 30.12 849 25.07 3.1 37.6 86 0.9 33.7
23:30 1020 30.12 849 25.07 3.2 37.8 83 0.7 33.2
23:35 1020 30.12 849 25.07 3 37.4 86 0.9 33.6
23:40 1020 30.12 849 25.07 2.9 37.2 87 0.9 33.6
23:45 1020 30.12 849 25.07 3 37.4 86 0.9 33.5
23:50 1020 30.12 849 25.07 3.3 37.9 84 0.8 33.4
23:55 1020 30.12 849 25.07 3.5 38.2 83 0.8 33.4
24:00 1020 30.12 849 25.07 3.5 38.3 83 0.9 33.6